Home > Products > Valid Products > TAF

000
FTUS45 KMSO 272320
TAFMSO
TAF
KMSO 272320Z 2800/2824 VRB05KT P6SM SKC=



000
FTUS45 KMSO 272320
TAFBTM
TAF
KBTM 272320Z 2800/2824 31005KT P6SM SKC=



000
FTUS45 KMSO 272320
TAFSMN
TAF
KSMN 272320Z 2800/2824 VRB03KT P6SM SKC
      AMD LTD TO CLD VIS AND WIND=



000
FTUS45 KMSO 272320
TAFGPI
TAF
KGPI 272320Z 2800/2824 15010KT P6SM SKC
     FM280200 17005KT P6SM SKC=



000
FTUS45 KMSO 271734
TAFGPI
TAF
KGPI 271734Z 2718/2818 VRB03KT P6SM SKC=



000
FTUS45 KMSO 271734
TAFSMN
TAF
KSMN 271734Z 2718/2818 VRB03KT P6SM SKC
      AMD LTD TO CLD VIS AND WIND=



000
FTUS45 KMSO 271734
TAFMSO
TAF
KMSO 271734Z 2718/2818 VRB04KT P6SM SKC
     FM272200 30010KT P6SM SKC
     FM280200 VRB03KT P6SM SKC=



000
FTUS45 KMSO 271734
TAFBTM
TAF
KBTM 271734Z 2718/2818 15005KT P6SM SKC
     FM272200 30008KT P6SM SKC
     FM280200 VRB03KT P6SM SKC=



000
FTUS45 KMSO 271355 AAA
TAFGPI
TAF AMD
KGPI 271355Z 2714/2812 VRB03KT P6SM SKC
     FM271400 VRB04KT P6SM SKC
     FM271800 17008KT P6SM SCT100=



000
FTUS45 KMSO 271126
TAFSMN
TAF
KSMN 271126Z 2712/2812 VRB03KT P6SM SKC
     FM272000 36006KT P6SM SCT090
      AMD LTD TO CLD VIS AND WIND=



000
FTUS45 KMSO 271126
TAFMSO
TAF
KMSO 271126Z 2712/2812 VRB04KT P6SM SKC
     FM272100 30007KT P6SM SCT120=



000
FTUS45 KMSO 271126
TAFGPI
TAF
KGPI 271126Z 2712/2812 VRB03KT 5SM BR SKC
      TEMPO 2712/2714 2SM BR
     FM271400 VRB04KT P6SM SKC
     FM271800 17008KT P6SM SCT100=



000
FTUS45 KMSO 271126
TAFBTM
TAF
KBTM 271126Z 2712/2812 15005KT P6SM SKC
     FM271900 30008KT P6SM SCT090=



000
FTUS45 KMSO 270520
TAFMSO
TAF
KMSO 270520Z 2706/2806 VRB04KT P6SM SKC
     FM272100 30007KT P6SM SCT120=



000
FTUS45 KMSO 270520
TAFGPI
TAF
KGPI 270520Z 2706/2806 VRB03KT P6SM SKC
     FM271800 17008KT P6SM SCT100=



000
FTUS45 KMSO 270520
TAFBTM
TAF
KBTM 270520Z 2706/2806 15005KT P6SM SKC
     FM271900 30008KT P6SM SCT090=



000
FTUS45 KMSO 270520
TAFSMN
TAF
KSMN 270520Z 2706/2806 VRB03KT P6SM SKC
     FM272000 36006KT P6SM SCT090
      AMD LTD TO CLD VIS AND WIND=



000
FTUS45 KMSO 262341 AAA
TAFGPI
TAF AMD
KGPI 262341Z 2700/2724 VRB06KT P6SM SKC
     FM271800 17008KT P6SM SCT100=



000
FTUS45 KMSO 262300
TAFBTM
TAF
KBTM 262320Z 2700/2724 32007KT P6SM SCT100
     FM270300 15006KT P6SM SKC
     FM271900 30008KT P6SM SCT090=



000
FTUS45 KMSO 262300
TAFGPI
TAF
KGPI 262320Z 2700/2724 17008KT P6SM SCT100
     FM270200 VRB03KT P6SM SKC
     FM271800 17008KT P6SM SCT100=



000
FTUS45 KMSO 262300
TAFMSO
TAF
KMSO 262320Z 2700/2724 30008KT P6SM SCT120
     FM270200 VRB04KT P6SM SKC
     FM272100 30007KT P6SM SCT120=



000
FTUS45 KMSO 262300
TAFSMN
TAF
KSMN 262320Z 2700/2724 36006KT P6SM SCT100
     FM270200 VRB03KT P6SM SKC
     FM272000 36006KT P6SM SCT090
      AMD LTD TO CLD VIS AND WIND=



000
FTUS45 KMSO 261700
TAFSMN
TAF
KSMN 261720Z 2618/2718 VRB03KT P6SM SKC
     FM262000 36006KT P6SM FEW100
     FM270200 VRB03KT P6SM SKC
      AMD LTD TO CLD VIS AND WIND=



000
FTUS45 KMSO 261700
TAFMSO
TAF
KMSO 261720Z 2618/2718 VRB04KT P6SM SKC
     FM262100 30008KT P6SM FEW150
     FM270200 VRB04KT P6SM SKC=



000
FTUS45 KMSO 261700
TAFGPI
TAF
KGPI 261720Z 2618/2718 04006KT P6SM FEW150
     FM262000 17008KT P6SM SKC
     FM270200 VRB03KT P6SM SKC=



000
FTUS45 KMSO 261700
TAFBTM
TAF
KBTM 261720Z 2618/2718 VRB05KT P6SM SKC
     FM262100 32007KT P6SM SCT100
     FM270300 15006KT P6SM SKC=



000
FTUS45 KMSO 261300 AAA
TAFSMN
TAF AMD
KSMN 261321Z 2613/2712 00000KT 2SM BR SCT005
     FM261400 VRB03KT P6SM SKC
      AMD LTD TO CLD VIS AND WIND=



000
FTUS45 KMSO 261100
TAFSMN
TAF
KSMN 261120Z 2612/2712 VRB03KT P6SM SKC
      AMD LTD TO CLD VIS AND WIND=



000
FTUS45 KMSO 261100
TAFBTM
TAF
KBTM 261120Z 2612/2712 VRB05KT P6SM SKC=



000
FTUS45 KMSO 261100
TAFGPI
TAF
KGPI 261120Z 2612/2712 VRB03KT P6SM SKC=



000
FTUS45 KMSO 261100
TAFMSO
TAF
KMSO 261120Z 2612/2712 VRB04KT P6SM SKC=



000
FTUS45 KMSO 260500
TAFGPI
TAF
KGPI 260520Z 2606/2706 VRB03KT P6SM SKC=



000
FTUS45 KMSO 260500
TAFSMN
TAF
KSMN 260520Z 2606/2706 VRB03KT P6SM SKC
      AMD LTD TO CLD VIS AND WIND=



000
FTUS45 KMSO 260500
TAFBTM
TAF
KBTM 260520Z 2606/2706 VRB05KT P6SM SKC=



000
FTUS45 KMSO 260500
TAFMSO
TAF
KMSO 260520Z 2606/2706 VRB04KT P6SM SKC=



000
FTUS45 KMSO 252300
TAFSMN
TAF
KSMN 252337Z 2600/2624 19007KT P6SM VCSH BKN070
     FM260300 VRB03KT P6SM BKN100
      AMD LTD TO CLD VIS AND WIND=



000
FTUS45 KMSO 252300
TAFGPI
TAF
KGPI 252337Z 2600/2624 17008KT P6SM FEW120
     FM260200 VRB03KT P6SM SKC=



000
FTUS45 KMSO 252300
TAFBTM
TAF
KBTM 252337Z 2600/2624 15006KT P6SM BKN100
     FM260200 15005KT P6SM FEW100=



000
FTUS45 KMSO 252300
TAFMSO
TAF
KMSO 252337Z 2600/2624 34007KT P6SM FEW120
     FM260300 36007KT P6SM SKC=



000
FTUS45 KMSO 251700
TAFGPI
TAF
KGPI 251720Z 2518/2618 02007KT P6SM SKC
     FM252000 17008KT P6SM FEW120
     FM260200 VRB03KT P6SM SKC=



000
FTUS45 KMSO 251700
TAFMSO
TAF
KMSO 251720Z 2518/2618 11011KT P6SM FEW150
     FM252000 34007KT P6SM FEW120
     FM260300 36007KT P6SM SKC=



000
FTUS45 KMSO 251700
TAFSMN
TAF
KSMN 251720Z 2518/2618 36006KT P6SM SCT070
     FM252000 19007KT P6SM VCSH BKN070
     FM260300 VRB03KT P6SM BKN100
      AMD LTD TO CLD VIS AND WIND=



000
FTUS45 KMSO 251700
TAFBTM
TAF
KBTM 251720Z 2518/2618 VRB04KT P6SM BKN070
     FM252000 15006KT P6SM BKN100
     FM260200 15005KT P6SM FEW100=



000
FTUS45 KMSO 251500 AAA
TAFMSO
TAF AMD
KMSO 251554Z 2516/2612 11011KT P6SM FEW150
     FM252000 34007KT P6SM FEW120
     FM260300 36007KT P6SM SKC=



000
FTUS45 KMSO 251400 AAA
TAFBTM
TAF AMD
KBTM 251425Z 2514/2612 VRB04KT P6SM SCT025 OVC070
     FM251700 15006KT P6SM SCT200=



000
FTUS45 KMSO 251200 AAA
TAFSMN
TAF AMD
KSMN 251251Z 2513/2612 00000KT P6SM FEW020 BKN050
      AMD LTD TO CLD VIS AND WIND=



000
FTUS45 KMSO 251100
TAFBTM
TAF
KBTM 251120Z 2512/2612 VRB04KT P6SM BKN025 OVC050
     FM251500 VRB04KT P6SM SCT025 OVC070
     FM251700 15006KT P6SM SCT200=



000
FTUS45 KMSO 251100
TAFGPI
TAF
KGPI 251120Z 2512/2612 VRB03KT P6SM SKC=



000
FTUS45 KMSO 251100
TAFSMN
TAF
KSMN 251120Z 2512/2612 00000KT 1SM BCFG BKN010
      TEMPO 2512/2513 1/2SM FG BKN005
     FM251300 VRB04KT P6SM SCT020 BKN120
      AMD LTD TO CLD VIS AND WIND=



000
FTUS45 KMSO 251100
TAFMSO
TAF
KMSO 251120Z 2512/2612 10005KT P6SM SCT200=



000
FTUS45 KMSO 251100 AAA
TAFBTM
TAF AMD
KBTM 251102Z 2511/2606 VRB03KT P6SM BKN025 OVC050
     FM251500 VRB03KT P6SM SCT025 OVC080
     FM251800 15006KT P6SM SCT100=



000
FTUS45 KMSO 250900 AAA
TAFSMN
TAF AMD
KSMN 250941Z 2510/2606 00000KT 1SM BCFG BKN010
      TEMPO 2510/2513 1/2SM FG BKN005
     FM251500 VRB04KT P6SM SCT020 BKN120
      AMD LTD TO CLD VIS AND WIND=



000
FTUS45 KMSO 250500
TAFMSO
TAF
KMSO 250520Z 2506/2606 11007KT P6SM SCT150=



000
FTUS45 KMSO 250500
TAFSMN
TAF
KSMN 250520Z 2506/2606 VRB06KT P6SM BKN060 OVC100
      AMD LTD TO CLD VIS AND WIND=



000
FTUS45 KMSO 250500
TAFGPI
TAF
KGPI 250520Z 2506/2606 VRB03KT P6SM SCT150=



000
FTUS45 KMSO 250500
TAFBTM
TAF
KBTM 250520Z 2506/2606 17004KT P6SM OVC050
     FM251700 15006KT P6SM SCT100=



    US Dept of Commerce
    National Oceanic and Atmospheric Administration
    National Weather Service
    1325 East West Highway
    Silver Spring, MD 20910
    Page Author: NWS Internet Services Team
Disclaimer
Information Quality
Credits
Glossary
Privacy Policy
Freedom of Information Act (FOIA)
About Us
Career Opportunities